Time;durP1;ratioP1;P1;durP2;ratioP2;P2;SDS_P1;SDS_P2;PMS_P1;PMS_P2;Temp;Humidity;BMP_temperature;BMP_pressure;BME280_temperature;BME280_humidity;BME280_pressure;Samples;Min_cycle;Max_cycle;Signal;HPM_P1;HPM_P2
2023/10/28 00:00:18;;;;;;;335.73;80.13;;;8.90;99.90;;;;;;4878438;29;20085;-80
2023/10/28 00:02:44;;;;;;;222.20;66.05;;;8.80;99.90;;;;;;4879353;29;20120;-80
2023/10/28 00:05:09;;;;;;;393.33;81.53;;;8.80;99.90;;;;;;4895315;29;20183;-80
2023/10/28 00:07:35;;;;;;;200.23;71.43;;;8.80;99.90;;;;;;4878861;29;20041;-80
2023/10/28 00:10:07;;;;;;;228.13;69.95;;;8.80;99.90;;;;;;4879322;29;20096;-80
2023/10/28 00:12:33;;;;;;;258.90;66.18;;;8.70;99.90;;;;;;4877932;29;20073;-80
2023/10/28 00:14:59;;;;;;;187.13;65.32;;;8.70;99.90;;;;;;4860946;29;20045;-80
2023/10/28 00:17:24;;;;;;;302.65;76.72;;;8.70;99.90;;;;;;4899523;29;20187;-80
2023/10/28 00:19:50;;;;;;;299.63;75.28;;;8.70;99.90;;;;;;4880561;29;20046;-80
2023/10/28 00:22:17;;;;;;;305.38;76.97;;;8.60;99.90;;;;;;4864848;29;20564;-80
2023/10/28 00:24:43;;;;;;;283.17;73.95;;;8.60;99.90;;;;;;4879850;29;20061;-80
2023/10/28 00:27:09;;;;;;;238.85;64.70;;;8.50;99.90;;;;;;4892179;29;20460;-80
2023/10/28 00:29:35;;;;;;;196.60;65.55;;;8.50;99.90;;;;;;4882026;29;20578;-80
2023/10/28 00:32:01;;;;;;;359.40;80.57;;;8.50;99.90;;;;;;4883536;29;20076;-80
2023/10/28 00:34:26;;;;;;;315.77;76.20;;;8.50;99.90;;;;;;4898369;29;20036;-80
2023/10/28 00:36:52;;;;;;;251.75;66.05;;;8.50;99.90;;;;;;4881886;29;20048;-80
2023/10/28 00:39:18;;;;;;;309.08;80.60;;;8.50;99.90;;;;;;4882076;29;20204;-80
2023/10/28 00:41:44;;;;;;;206.93;68.32;;;8.50;99.90;;;;;;4883211;29;20048;-80
2023/10/28 00:44:10;;;;;;;213.10;72.90;;;8.50;99.90;;;;;;4882778;29;20064;-80
2023/10/28 00:46:36;;;;;;;341.23;83.20;;;8.50;99.90;;;;;;4881854;29;20040;-80
2023/10/28 00:49:02;;;;;;;229.80;75.50;;;8.50;99.90;;;;;;4895455;29;20048;-80
2023/10/28 00:51:28;;;;;;;306.42;79.00;;;8.50;99.90;;;;;;4882830;29;20044;-80
2023/10/28 00:53:55;;;;;;;236.30;73.60;;;8.50;99.90;;;;;;4882768;29;20048;-80
2023/10/28 00:56:21;;;;;;;241.02;67.47;;;8.40;99.90;;;;;;4897651;29;20123;-80
2023/10/28 00:58:47;;;;;;;253.32;72.40;;;8.40;99.90;;;;;;4897568;29;20181;-80
2023/10/28 01:01:13;;;;;;;220.43;74.93;;;8.40;99.90;;;;;;4898170;29;20519;-80
2023/10/28 01:03:42;;;;;;;304.50;79.28;;;8.40;99.90;;;;;;4882494;29;20043;-80
2023/10/28 01:06:12;;;;;;;202.73;72.55;;;8.40;99.90;;;;;;4881010;29;20052;-80
2023/10/28 01:08:38;;;;;;;314.98;84.78;;;8.40;99.90;;;;;;4881588;29;20048;-80
2023/10/28 01:11:04;;;;;;;145.30;64.95;;;8.40;99.90;;;;;;4882433;29;20089;-80
2023/10/28 01:13:30;;;;;;;128.77;57.67;;;8.40;99.90;;;;;;4898015;29;20049;-80
2023/10/28 01:15:56;;;;;;;195.85;69.22;;;8.40;99.90;;;;;;4896415;29;20056;-80
2023/10/28 01:18:22;;;;;;;214.20;71.80;;;8.40;99.90;;;;;;4882499;29;20044;-80
2023/10/28 01:20:48;;;;;;;206.65;74.10;;;8.30;99.90;;;;;;4901046;29;20071;-80
2023/10/28 01:23:14;;;;;;;236.40;74.40;;;8.30;99.90;;;;;;4901060;29;20072;-80
2023/10/28 01:25:40;;;;;;;161.20;67.50;;;8.30;99.90;;;;;;4881064;29;20049;-80
2023/10/28 01:28:08;;;;;;;135.70;63.88;;;8.30;99.90;;;;;;4912659;29;20041;-80
2023/10/28 01:30:33;;;;;;;239.52;77.57;;;8.30;99.90;;;;;;4882056;29;20044;-80
2023/10/28 01:32:59;;;;;;;210.77;76.75;;;8.30;99.90;;;;;;4897641;29;20052;-79
2023/10/28 01:35:25;;;;;;;239.98;73.25;;;8.30;99.90;;;;;;4881145;29;20052;-80
2023/10/28 01:37:51;;;;;;;150.70;61.28;;;8.20;99.90;;;;;;4900764;29;20032;-80
2023/10/28 01:40:17;;;;;;;201.38;68.38;;;8.20;99.90;;;;;;4894711;29;20040;-80
2023/10/28 01:42:45;;;;;;;216.38;72.88;;;8.20;99.90;;;;;;4881854;29;20047;-80
2023/10/28 01:45:11;;;;;;;197.95;70.38;;;8.20;99.90;;;;;;4881784;29;20048;-80
2023/10/28 01:47:41;;;;;;;223.20;76.25;;;8.10;99.90;;;;;;4896533;29;20088;-80
2023/10/28 01:50:07;;;;;;;137.38;62.05;;;8.10;99.90;;;;;;4882048;29;20444;-80
2023/10/28 01:52:33;;;;;;;216.75;73.25;;;8.10;99.90;;;;;;4893970;29;20041;-80
2023/10/28 01:54:59;;;;;;;193.10;69.53;;;8.10;99.90;;;;;;4878573;29;20079;-80
2023/10/28 01:57:25;;;;;;;192.68;73.78;;;8.10;99.90;;;;;;4873968;29;20068;-80
2023/10/28 01:59:50;;;;;;;155.07;61.25;;;8.10;99.90;;;;;;4893340;29;20036;-80
2023/10/28 02:02:16;;;;;;;157.77;63.38;;;8.00;99.90;;;;;;4900316;29;20127;-80
2023/10/28 02:04:42;;;;;;;153.98;63.15;;;8.00;99.90;;;;;;4893365;29;20055;-80
2023/10/28 02:07:07;;;;;;;175.60;65.13;;;8.00;99.90;;;;;;4890514;29;20082;-80
2023/10/28 02:09:33;;;;;;;136.65;62.15;;;7.90;99.90;;;;;;4896514;29;20535;-79
2023/10/28 02:12:02;;;;;;;147.13;62.45;;;7.90;99.90;;;;;;4897059;29;20047;-80
2023/10/28 02:14:28;;;;;;;144.50;61.08;;;7.90;99.90;;;;;;4881299;29;20040;-80
2023/10/28 02:16:55;;;;;;;133.20;57.30;;;7.90;99.90;;;;;;4895618;29;20047;-80
2023/10/28 02:19:21;;;;;;;135.30;58.85;;;7.90;99.90;;;;;;4897890;29;20405;-80
2023/10/28 02:21:47;;;;;;;147.73;63.95;;;7.80;99.90;;;;;;4881213;29;20033;-80
2023/10/28 02:24:13;;;;;;;128.05;57.90;;;7.80;99.90;;;;;;4896749;29;20036;-79
2023/10/28 02:26:38;;;;;;;109.10;56.80;;;7.80;99.90;;;;;;4880301;29;20479;-80
2023/10/28 02:29:04;;;;;;;121.93;57.05;;;7.80;99.90;;;;;;4895451;29;20040;-80
2023/10/28 02:31:30;;;;;;;170.85;66.53;;;7.80;99.90;;;;;;4896648;29;20083;-80
2023/10/28 02:33:55;;;;;;;146.25;64.20;;;7.80;99.90;;;;;;4880669;29;20088;-80
2023/10/28 02:36:21;;;;;;;145.52;61.45;;;7.80;99.90;;;;;;4879036;29;20136;-80
2023/10/28 02:38:47;;;;;;;97.97;53.88;;;7.80;99.90;;;;;;4880681;29;20104;-80
2023/10/28 02:41:14;;;;;;;163.55;70.18;;;7.80;99.90;;;;;;4895914;29;20957;-80
2023/10/28 02:43:40;;;;;;;131.60;63.72;;;7.80;99.90;;;;;;4896426;29;20048;-80
2023/10/28 02:46:06;;;;;;;167.20;66.15;;;7.80;99.90;;;;;;4879917;29;20085;-80
2023/10/28 02:48:32;;;;;;;126.47;61.47;;;7.80;99.90;;;;;;4880714;29;20135;-80
2023/10/28 02:51:03;;;;;;;144.23;67.57;;;7.90;99.90;;;;;;4896780;29;20040;-80
2023/10/28 02:53:29;;;;;;;151.40;68.93;;;7.90;99.90;;;;;;4896560;29;20079;-80
2023/10/28 02:55:54;;;;;;;174.10;72.28;;;8.00;99.90;;;;;;4879298;29;20052;-80
2023/10/28 02:58:20;;;;;;;137.55;67.63;;;8.10;99.90;;;;;;4895966;29;20036;-80
2023/10/28 03:00:45;;;;;;;166.48;67.50;;;8.10;99.90;;;;;;4880769;29;20040;-80
2023/10/28 03:03:11;;;;;;;148.93;66.15;;;8.20;99.90;;;;;;4879695;29;20040;-80
2023/10/28 03:05:37;;;;;;;143.73;63.35;;;8.20;99.90;;;;;;4896108;29;20044;-80
2023/10/28 03:08:02;;;;;;;123.15;64.95;;;8.20;99.90;;;;;;4879060;29;20056;-80
2023/10/28 03:10:28;;;;;;;144.05;64.35;;;8.30;99.90;;;;;;4880201;29;20143;-80
2023/10/28 03:12:54;;;;;;;126.47;61.42;;;8.30;99.90;;;;;;4880277;29;20040;-80
2023/10/28 03:15:19;;;;;;;114.07;61.45;;;8.40;99.90;;;;;;4880160;29;20153;-80
2023/10/28 03:17:45;;;;;;;161.60;68.13;;;8.40;99.90;;;;;;4879337;29;20042;-80
2023/10/28 03:20:11;;;;;;;128.57;62.22;;;8.40;99.90;;;;;;4880222;29;20041;-80
2023/10/28 03:22:37;;;;;;;186.25;73.72;;;8.40;99.90;;;;;;4880079;29;20040;-80
2023/10/28 03:25:03;;;;;;;162.13;68.05;;;8.50;99.90;;;;;;4880359;29;20059;-80
2023/10/28 03:27:30;;;;;;;217.30;75.57;;;8.50;99.90;;;;;;4904162;29;20040;-80
2023/10/28 03:29:56;;;;;;;120.55;61.47;;;8.50;99.90;;;;;;4940895;23;20136;-78
2023/10/28 03:32:22;;;;;;;217.98;73.93;;;8.50;99.90;;;;;;4934518;29;20044;-78
2023/10/28 03:34:48;;;;;;;109.15;60.78;;;8.50;99.90;;;;;;4911160;29;20405;-78
2023/10/28 03:37:13;;;;;;;144.75;65.63;;;8.60;99.90;;;;;;4919092;29;20130;-78
2023/10/28 03:39:39;;;;;;;207.82;72.85;;;8.60;99.90;;;;;;4919107;29;20042;-78
2023/10/28 03:42:07;;;;;;;155.07;66.60;;;8.60;99.90;;;;;;4921230;29;20095;-78
2023/10/28 03:44:34;;;;;;;173.48;69.45;;;8.60;99.90;;;;;;4922941;29;20122;-78
2023/10/28 03:46:59;;;;;;;116.82;61.83;;;8.60;99.90;;;;;;4909544;29;20507;-78
2023/10/28 03:49:25;;;;;;;129.23;60.67;;;8.60;99.90;;;;;;4900114;29;20059;-78
2023/10/28 03:51:51;;;;;;;162.55;69.35;;;8.60;99.90;;;;;;4917695;29;20046;-78
2023/10/28 03:54:16;;;;;;;120.95;57.42;;;8.50;99.90;;;;;;4919680;29;20043;-78
2023/10/28 03:56:42;;;;;;;219.40;74.20;;;8.50;99.90;;;;;;4904598;29;20067;-78
2023/10/28 03:59:07;;;;;;;164.23;64.88;;;8.50;99.90;;;;;;4908141;29;20055;-78
2023/10/28 04:01:33;;;;;;;230.10;76.40;;;8.50;99.90;;;;;;4930103;29;20099;-78
2023/10/28 04:03:58;;;;;;;154.90;63.38;;;8.50;99.90;;;;;;4939102;29;20252;-78
2023/10/28 04:06:25;;;;;;;168.07;64.97;;;8.50;99.90;;;;;;4922026;29;20047;-78
2023/10/28 04:08:50;;;;;;;136.68;59.15;;;8.50;99.90;;;;;;4904507;29;20561;-78
2023/10/28 04:11:16;;;;;;;91.70;55.47;;;8.50;99.90;;;;;;4920378;29;20040;-78
2023/10/28 04:13:42;;;;;;;137.57;61.55;;;8.50;99.90;;;;;;4928314;29;20410;-79
2023/10/28 04:16:07;;;;;;;178.55;63.25;;;8.60;99.90;;;;;;4927467;29;20051;-79
2023/10/28 04:18:33;;;;;;;163.55;64.78;;;8.70;99.90;;;;;;4923704;29;20035;-79
2023/10/28 04:20:59;;;;;;;194.77;68.57;;;8.70;99.90;;;;;;4922644;29;20086;-78
2023/10/28 04:23:24;;;;;;;174.20;66.40;;;8.70;99.90;;;;;;4932875;29;20039;-78
2023/10/28 04:25:50;;;;;;;173.88;64.65;;;8.80;99.90;;;;;;4939651;29;20050;-78
2023/10/28 04:28:16;;;;;;;167.95;62.42;;;8.70;99.90;;;;;;4922673;29;20071;-79
2023/10/28 04:30:41;;;;;;;177.77;63.75;;;8.70;99.90;;;;;;4924438;29;20060;-78
2023/10/28 04:33:07;;;;;;;108.03;57.00;;;8.70;99.90;;;;;;4924281;29;20043;-78
2023/10/28 04:35:32;;;;;;;81.10;50.03;;;8.70;99.90;;;;;;4939731;29;20502;-78
2023/10/28 04:37:58;;;;;;;152.30;58.50;;;8.70;99.90;;;;;;4916695;29;20040;-78
2023/10/28 04:40:26;;;;;;;158.52;64.80;;;8.80;99.90;;;;;;4937314;29;20036;-78
2023/10/28 04:42:52;;;;;;;149.90;61.92;;;8.80;99.90;;;;;;4920959;29;20036;-78
2023/10/28 04:45:19;;;;;;;146.63;59.85;;;8.90;99.90;;;;;;4904717;29;20036;-78
2023/10/28 04:47:46;;;;;;;125.28;57.20;;;8.90;99.90;;;;;;4920858;29;20052;-79
2023/10/28 04:50:12;;;;;;;196.35;65.03;;;8.90;99.90;;;;;;4919445;29;20090;-78
2023/10/28 04:52:40;;;;;;;175.82;58.95;;;8.90;99.90;;;;;;4923273;29;20074;-78
2023/10/28 04:55:05;;;;;;;127.55;56.03;;;8.90;99.90;;;;;;4937756;29;20055;-78
2023/10/28 04:57:31;;;;;;;107.03;49.58;;;9.00;99.90;;;;;;4938348;29;20043;-79
2023/10/28 04:59:56;;;;;;;155.75;60.67;;;9.00;99.90;;;;;;4928127;29;20051;-78
2023/10/28 05:02:22;;;;;;;119.88;54.97;;;9.00;99.90;;;;;;4921048;29;20060;-78
2023/10/28 05:04:48;;;;;;;124.10;56.08;;;9.10;99.90;;;;;;4936402;29;20046;-78
2023/10/28 05:07:13;;;;;;;157.07;57.17;;;9.10;99.90;;;;;;4921206;29;20509;-78
2023/10/28 05:09:39;;;;;;;139.40;57.65;;;9.10;99.90;;;;;;4914780;29;20507;-78
2023/10/28 05:12:04;;;;;;;125.30;55.30;;;9.20;99.90;;;;;;4917709;29;20036;-78
2023/10/28 05:14:30;;;;;;;178.80;59.78;;;9.20;99.90;;;;;;4932844;29;20044;-78
2023/10/28 05:16:56;;;;;;;131.25;53.42;;;9.20;99.90;;;;;;4936695;29;20087;-78
2023/10/28 05:19:22;;;;;;;124.40;54.38;;;9.30;99.90;;;;;;4914376;29;20055;-78
2023/10/28 05:21:48;;;;;;;153.18;58.25;;;9.30;99.90;;;;;;4955582;29;20074;-78
2023/10/28 05:24:15;;;;;;;118.90;55.53;;;9.40;99.90;;;;;;4927001;29;20127;-78
2023/10/28 05:26:40;;;;;;;144.18;55.72;;;9.40;99.90;;;;;;4919027;29;20470;-78
2023/10/28 05:29:06;;;;;;;83.75;47.63;;;9.40;99.90;;;;;;4935729;29;20067;-78
2023/10/28 05:31:32;;;;;;;112.10;50.45;;;9.40;99.90;;;;;;4920699;29;20289;-78
2023/10/28 05:33:58;;;;;;;165.15;55.60;;;9.50;99.90;;;;;;4923581;29;20102;-78
2023/10/28 05:36:23;;;;;;;106.97;49.28;;;9.50;99.90;;;;;;4926917;29;20180;-78
2023/10/28 05:38:49;;;;;;;128.40;52.20;;;9.50;99.90;;;;;;4918356;29;20522;-78
2023/10/28 05:41:14;;;;;;;108.05;48.72;;;9.50;99.90;;;;;;4920807;29;20040;-78
2023/10/28 05:43:40;;;;;;;95.65;46.95;;;9.50;99.90;;;;;;4918751;29;20038;-78
2023/10/28 05:46:06;;;;;;;94.00;43.22;;;9.50;99.90;;;;;;4920810;29;20127;-79
2023/10/28 05:48:32;;;;;;;86.82;40.90;;;9.50;99.90;;;;;;4920771;29;20521;-79
2023/10/28 05:50:58;;;;;;;157.77;50.80;;;9.40;99.90;;;;;;4903936;29;20048;-78
2023/10/28 05:53:24;;;;;;;81.82;40.55;;;9.40;99.90;;;;;;4917735;29;20514;-79
2023/10/28 05:55:50;;;;;;;120.05;44.75;;;9.30;99.90;;;;;;4917555;29;20040;-79
2023/10/28 05:58:16;;;;;;;50.00;33.40;;;9.30;99.90;;;;;;4917419;29;20040;-78
2023/10/28 06:00:42;;;;;;;74.10;35.90;;;9.20;99.90;;;;;;4908648;29;20090;-78
2023/10/28 06:03:08;;;;;;;73.65;35.00;;;9.20;99.90;;;;;;4917584;29;20491;-79
2023/10/28 06:05:35;;;;;;;93.60;40.60;;;9.20;99.90;;;;;;4902096;29;20040;-78
2023/10/28 06:08:00;;;;;;;71.70;37.75;;;9.20;99.90;;;;;;4901862;29;20554;-78
2023/10/28 06:10:26;;;;;;;111.20;40.25;;;9.20;99.90;;;;;;4902343;29;20048;-79
2023/10/28 06:12:52;;;;;;;61.83;32.25;;;9.20;99.90;;;;;;4920378;29;20047;-78
2023/10/28 06:15:17;;;;;;;39.20;28.95;;;9.10;99.90;;;;;;4939868;29;20043;-78
2023/10/28 06:17:45;;;;;;;43.83;30.13;;;9.20;99.90;;;;;;4943919;29;20036;-79
2023/10/28 06:20:11;;;;;;;60.35;32.22;;;9.20;99.90;;;;;;4936634;29;20043;-79
2023/10/28 06:22:37;;;;;;;52.35;30.27;;;9.20;99.90;;;;;;4920786;29;20040;-79
2023/10/28 06:25:04;;;;;;;73.65;32.97;;;9.20;99.90;;;;;;4934047;29;20043;-79
2023/10/28 06:27:31;;;;;;;83.72;35.00;;;9.20;99.90;;;;;;4933872;29;20499;-78
2023/10/28 06:29:57;;;;;;;76.20;32.67;;;9.20;99.90;;;;;;4919904;29;20051;-79
2023/10/28 06:32:22;;;;;;;71.47;31.60;;;9.20;99.90;;;;;;4944389;29;20059;-78
2023/10/28 06:34:49;;;;;;;48.53;28.42;;;9.20;99.90;;;;;;4936439;29;20087;-78
2023/10/28 06:37:15;;;;;;;53.63;29.52;;;9.20;99.90;;;;;;4917626;29;20130;-78
2023/10/28 06:39:40;;;;;;;55.63;30.40;;;9.20;99.90;;;;;;4931704;29;20044;-78
2023/10/28 06:42:06;;;;;;;41.10;26.38;;;9.20;99.90;;;;;;4936217;29;20032;-79
2023/10/28 06:44:32;;;;;;;53.42;28.15;;;9.20;99.90;;;;;;4937716;29;20044;-80
2023/10/28 06:46:58;;;;;;;50.20;28.08;;;9.30;99.90;;;;;;4932999;29;20490;-75
2023/10/28 06:49:24;;;;;;;77.43;31.35;;;9.30;99.90;;;;;;4932539;29;20044;-81
2023/10/28 06:51:50;;;;;;;35.13;24.10;;;9.40;99.90;;;;;;4944574;28;20043;-80
2023/10/28 06:54:16;;;;;;;32.63;22.33;;;9.40;99.90;;;;;;4946582;29;20043;-80
2023/10/28 06:56:41;;;;;;;41.10;25.73;;;9.30;99.90;;;;;;4929546;29;20095;-80
2023/10/28 06:59:07;;;;;;;37.50;24.70;;;9.30;99.90;;;;;;4959501;28;20043;-80
2023/10/28 07:01:34;;;;;;;77.93;27.63;;;9.30;99.90;;;;;;4951667;29;20035;-79
2023/10/28 07:04:01;;;;;;;38.92;24.13;;;9.20;99.90;;;;;;4942208;29;20114;-80
2023/10/28 07:06:26;;;;;;;42.47;23.63;;;9.10;99.90;;;;;;4936265;29;20047;-80
2023/10/28 07:08:52;;;;;;;44.97;23.50;;;9.10;99.90;;;;;;4918491;29;20102;-80
2023/10/28 07:11:17;;;;;;;40.40;24.15;;;9.10;99.90;;;;;;4949323;29;20051;-80
2023/10/28 07:13:44;;;;;;;38.92;23.02;;;9.00;99.90;;;;;;4930033;29;20113;-80
2023/10/28 07:16:10;;;;;;;26.38;20.77;;;9.00;99.90;;;;;;4941369;29;20050;-80
2023/10/28 07:18:35;;;;;;;31.10;21.98;;;9.00;99.90;;;;;;4927631;29;20040;-79
2023/10/28 07:21:02;;;;;;;50.42;25.20;;;9.10;99.90;;;;;;4932097;29;20039;-79
2023/10/28 07:23:28;;;;;;;40.08;23.75;;;9.10;99.90;;;;;;4918664;29;20552;-79
2023/10/28 07:25:54;;;;;;;37.72;23.73;;;9.20;99.90;;;;;;4936966;28;20043;-79
2023/10/28 07:28:20;;;;;;;59.45;26.35;;;9.30;99.90;;;;;;4953254;29;20490;-80
2023/10/28 07:30:48;;;;;;;53.95;27.10;;;9.30;99.90;;;;;;4923737;29;20115;-79
2023/10/28 07:33:14;;;;;;;53.17;25.27;;;9.40;99.90;;;;;;4924807;29;20506;-79
2023/10/28 07:35:50;;;;;;;32.67;21.50;;;9.40;99.90;;;;;;4940246;29;20055;-79
2023/10/28 07:38:17;;;;;;;33.67;22.85;;;9.50;99.90;;;;;;4926212;29;20402;-79
2023/10/28 07:40:44;;;;;;;53.92;26.13;;;9.50;99.90;;;;;;4937661;29;20039;-79
2023/10/28 07:43:14;;;;;;;42.65;23.55;;;9.60;99.90;;;;;;4938035;29;20051;-79
2023/10/28 07:45:40;;;;;;;31.05;20.10;;;9.60;99.90;;;;;;4936905;29;20516;-79
2023/10/28 07:48:07;;;;;;;43.85;23.92;;;9.70;99.90;;;;;;4953798;29;20047;-79
2023/10/28 07:50:35;;;;;;;39.78;22.02;;;9.70;99.90;;;;;;4953787;29;20097;-79
2023/10/28 07:53:01;;;;;;;31.20;20.30;;;9.80;99.90;;;;;;4937841;29;20053;-79
2023/10/28 07:55:27;;;;;;;63.70;24.73;;;9.80;99.90;;;;;;4930989;29;20039;-79
2023/10/28 07:57:53;;;;;;;23.67;17.60;;;9.80;99.90;;;;;;4931444;29;20043;-79
2023/10/28 08:00:19;;;;;;;35.05;18.50;;;9.90;99.90;;;;;;4937516;29;20038;-79
2023/10/28 08:02:45;;;;;;;43.63;20.52;;;9.90;99.90;;;;;;4953712;29;20035;-79
2023/10/28 08:05:12;;;;;;;47.40;20.25;;;10.00;99.90;;;;;;4938763;29;20051;-79
2023/10/28 08:07:38;;;;;;;42.65;19.67;;;10.00;99.90;;;;;;4925130;29;20051;-79
2023/10/28 08:10:04;;;;;;;23.42;16.77;;;10.10;99.90;;;;;;4933526;29;20066;-79
2023/10/28 08:12:30;;;;;;;20.55;14.68;;;10.20;99.90;;;;;;4947888;29;20043;-79
2023/10/28 08:14:56;;;;;;;53.63;21.88;;;10.20;99.90;;;;;;4918634;29;20074;-79
2023/10/28 08:17:22;;;;;;;23.65;16.48;;;10.30;99.90;;;;;;4928048;29;20127;-81
2023/10/28 08:19:48;;;;;;;30.83;17.48;;;10.40;99.90;;;;;;4945316;29;20047;-80
2023/10/28 08:22:14;;;;;;;25.05;16.23;;;10.40;99.90;;;;;;4929453;29;20134;-75
2023/10/28 08:24:41;;;;;;;42.33;19.02;;;10.50;99.90;;;;;;4933373;29;20035;-80
2023/10/28 08:27:08;;;;;;;26.10;15.02;;;10.50;99.90;;;;;;4921812;29;20510;-78
2023/10/28 08:29:34;;;;;;;20.20;13.55;;;10.50;99.90;;;;;;4940898;29;20121;-79
2023/10/28 08:32:00;;;;;;;43.30;19.17;;;10.50;99.90;;;;;;4936185;29;20062;-80
2023/10/28 08:34:26;;;;;;;16.33;12.82;;;10.50;99.90;;;;;;4939584;29;20036;-79
2023/10/28 08:36:52;;;;;;;33.80;17.77;;;10.60;99.90;;;;;;4927200;29;20083;-79
2023/10/28 08:39:19;;;;;;;14.85;11.10;;;10.60;99.90;;;;;;4942269;28;20151;-79
2023/10/28 08:41:46;;;;;;;31.30;18.08;;;10.70;99.90;;;;;;4936902;29;20095;-80
2023/10/28 08:44:14;;;;;;;25.40;14.63;;;10.70;99.90;;;;;;4928779;29;20066;-81
2023/10/28 08:46:42;;;;;;;14.27;11.30;;;10.70;99.90;;;;;;4941147;29;20039;-81
2023/10/28 08:49:11;;;;;;;17.55;14.15;;;10.80;99.90;;;;;;4935868;29;20047;-81
2023/10/28 08:51:42;;;;;;;19.33;13.20;;;10.90;99.90;;;;;;4935541;29;20126;-81
2023/10/28 08:54:10;;;;;;;19.55;12.70;;;11.00;99.90;;;;;;4946982;29;20038;-81
2023/10/28 08:56:39;;;;;;;22.80;15.63;;;11.10;99.90;;;;;;4935108;29;20122;-81
2023/10/28 08:59:04;;;;;;;19.17;13.43;;;11.20;99.90;;;;;;4946748;29;20402;-80
2023/10/28 09:01:31;;;;;;;29.30;17.50;;;11.30;99.90;;;;;;4953016;29;20035;-81
2023/10/28 09:04:00;;;;;;;21.27;14.32;;;11.40;99.90;;;;;;4944673;29;20042;-81
2023/10/28 09:06:26;;;;;;;48.78;17.63;;;11.50;99.90;;;;;;4943498;29;20054;-81
2023/10/28 09:08:51;;;;;;;18.50;13.75;;;11.60;99.90;;;;;;4946564;29;20035;-81
2023/10/28 09:11:19;;;;;;;23.55;16.63;;;11.70;99.90;;;;;;4949488;29;20039;-81
2023/10/28 09:13:45;;;;;;;16.15;11.80;;;11.80;99.90;;;;;;4925083;29;20066;-81
2023/10/28 09:16:14;;;;;;;18.80;12.65;;;11.90;99.90;;;;;;4955929;29;20498;-80
2023/10/28 09:18:41;;;;;;;14.32;9.35;;;11.90;99.90;;;;;;4956355;29;20510;-81
2023/10/28 09:21:09;;;;;;;18.67;11.55;;;11.80;99.90;;;;;;4940567;29;20066;-80
2023/10/28 09:23:35;;;;;;;16.88;10.82;;;11.70;99.90;;;;;;4931578;29;20035;-81
2023/10/28 09:26:01;;;;;;;17.88;11.60;;;11.70;99.90;;;;;;4948103;29;20042;-81
2023/10/28 09:28:27;;;;;;;16.02;11.48;;;11.60;99.90;;;;;;4956932;28;20039;-81
2023/10/28 09:30:53;;;;;;;13.35;9.95;;;11.60;99.90;;;;;;4931927;29;20039;-82
2023/10/28 09:33:20;;;;;;;17.88;12.07;;;11.70;99.90;;;;;;4937022;29;20338;-82
2023/10/28 09:35:46;;;;;;;20.13;13.57;;;11.70;99.90;;;;;;4960548;29;20050;-84
2023/10/28 09:38:12;;;;;;;16.52;12.48;;;11.60;99.90;;;;;;4938814;29;20611;-83
2023/10/28 09:40:39;;;;;;;15.15;11.10;;;11.60;99.90;;;;;;4948204;28;20495;-83
2023/10/28 09:43:06;;;;;;;24.40;13.38;;;11.60;99.90;;;;;;4943582;29;20032;-82
2023/10/28 09:45:50;;;;;;;29.85;13.05;;;11.60;99.90;;;;;;4936684;29;20520;-82
2023/10/28 09:48:17;;;;;;;14.85;9.38;;;11.60;99.90;;;;;;4928133;29;20043;-82
2023/10/28 09:50:50;;;;;;;18.08;11.15;;;11.50;99.90;;;;;;4953377;29;20058;-83
2023/10/28 09:53:38;;;;;;;13.70;10.55;;;11.50;99.90;;;;;;4944011;29;20044;-78
2023/10/28 09:56:04;;;;;;;21.67;13.32;;;11.50;99.90;;;;;;4932979;29;20052;-77
2023/10/28 09:58:38;;;;;;;20.08;12.98;;;11.40;99.90;;;;;;4931349;29;20067;-79
2023/10/28 10:01:16;;;;;;;14.98;9.77;;;11.40;99.90;;;;;;4950104;29;20043;-80
2023/10/28 10:04:27;;;;;;;20.05;11.75;;;11.40;99.90;;;;;;4949481;28;20039;-77
2023/10/28 10:06:53;;;;;;;17.08;11.35;;;11.50;99.90;;;;;;4898089;29;20051;-80
2023/10/28 10:09:18;;;;;;;13.27;9.45;;;11.50;99.90;;;;;;4949996;28;20524;-82
2023/10/28 10:11:45;;;;;;;18.77;12.38;;;11.60;99.90;;;;;;4942050;29;20040;-80
2023/10/28 10:14:12;;;;;;;14.23;10.63;;;11.70;99.90;;;;;;4925392;29;20098;-80
2023/10/28 10:17:02;;;;;;;17.38;12.82;;;11.90;99.90;;;;;;4927937;29;20050;-80
2023/10/28 10:19:33;;;;;;;12.57;8.57;;;12.10;99.90;;;;;;4928066;29;20036;-80
2023/10/28 10:22:11;;;;;;;10.75;6.97;;;12.20;99.90;;;;;;4949633;29;20059;-80
2023/10/28 10:24:48;;;;;;;11.15;9.48;;;12.30;99.90;;;;;;4944704;29;20486;-80
2023/10/28 10:27:14;;;;;;;13.38;9.63;;;12.60;99.90;;;;;;4961932;28;20066;-80
2023/10/28 10:29:41;;;;;;;9.23;5.85;;;12.90;99.90;;;;;;4948661;29;20039;-80
2023/10/28 10:32:16;;;;;;;9.80;7.03;;;13.00;99.90;;;;;;4936875;29;20054;-81
2023/10/28 10:34:45;;;;;;;14.50;8.43;;;13.00;99.90;;;;;;4936206;29;20048;-80
2023/10/28 10:37:24;;;;;;;11.05;7.43;;;12.90;99.90;;;;;;4939967;29;20043;-79
2023/10/28 10:39:51;;;;;;;12.98;8.75;;;12.90;99.90;;;;;;4921307;29;20178;-79
2023/10/28 10:42:17;;;;;;;11.23;8.45;;;12.90;99.90;;;;;;4936753;29;20048;-79
2023/10/28 10:44:43;;;;;;;12.82;8.02;;;13.00;99.90;;;;;;4925557;29;20094;-79
2023/10/28 10:47:10;;;;;;;9.82;6.15;;;13.00;99.90;;;;;;4939885;29;20242;-78
2023/10/28 10:49:38;;;;;;;11.10;7.00;;;13.00;99.90;;;;;;4927697;29;20043;-79
2023/10/28 10:52:05;;;;;;;13.73;8.20;;;13.00;99.90;;;;;;4935317;29;20043;-78
2023/10/28 10:54:33;;;;;;;14.05;9.05;;;12.90;99.90;;;;;;4941999;29;20114;-79
2023/10/28 10:57:00;;;;;;;10.43;7.07;;;12.90;99.90;;;;;;4939551;28;20039;-79
2023/10/28 10:59:32;;;;;;;13.15;7.97;;;12.90;99.90;;;;;;4936684;29;20039;-78
2023/10/28 11:02:00;;;;;;;10.70;6.82;;;12.80;99.90;;;;;;4930933;29;20087;-79
2023/10/28 11:04:26;;;;;;;11.05;7.30;;;12.70;99.90;;;;;;4947728;29;20126;-78
2023/10/28 11:06:52;;;;;;;8.25;6.65;;;12.70;99.90;;;;;;4934583;29;20090;-79
2023/10/28 11:09:18;;;;;;;13.43;9.00;;;12.70;99.90;;;;;;4941143;29;20502;-80
2023/10/28 11:11:44;;;;;;;8.85;5.38;;;12.70;99.90;;;;;;4921714;29;20394;-78
2023/10/28 11:14:09;;;;;;;10.50;5.63;;;12.80;99.90;;;;;;4955106;28;20070;-78
2023/10/28 11:16:35;;;;;;;13.73;7.15;;;12.70;99.90;;;;;;4957531;28;20178;-78
2023/10/28 11:19:05;;;;;;;10.80;4.90;;;12.80;99.90;;;;;;4938129;29;20031;-79
2023/10/28 11:21:34;;;;;;;9.27;6.77;;;12.80;99.90;;;;;;4948516;28;20114;-79
2023/10/28 11:24:00;;;;;;;11.25;6.25;;;12.80;99.90;;;;;;4952002;28;20039;-78
2023/10/28 11:26:30;;;;;;;9.02;5.65;;;12.80;99.90;;;;;;4956973;29;20039;-78
2023/10/28 11:28:59;;;;;;;9.43;4.57;;;12.80;99.90;;;;;;4955955;29;20525;-78
2023/10/28 11:31:29;;;;;;;14.73;7.72;;;12.70;99.90;;;;;;4941096;29;20081;-78
2023/10/28 11:33:58;;;;;;;11.50;4.90;;;12.70;99.90;;;;;;4930761;28;20046;-79
2023/10/28 11:36:25;;;;;;;9.05;6.10;;;12.60;99.90;;;;;;4922097;29;20036;-78
2023/10/28 11:38:51;;;;;;;10.20;4.95;;;12.60;99.90;;;;;;4940788;29;20043;-78
2023/10/28 11:41:17;;;;;;;12.52;6.88;;;12.70;99.90;;;;;;4936568;29;20054;-78
2023/10/28 11:43:42;;;;;;;10.63;4.90;;;12.70;99.90;;;;;;4951127;29;20039;-78
2023/10/28 11:46:08;;;;;;;11.70;5.38;;;12.80;99.90;;;;;;4930797;29;20134;-79
2023/10/28 11:48:34;;;;;;;11.95;7.85;;;12.90;99.90;;;;;;4939267;28;20061;-79
2023/10/28 11:51:02;;;;;;;13.93;6.90;;;13.00;99.90;;;;;;4946009;29;20040;-79
2023/10/28 11:53:29;;;;;;;8.65;4.32;;;13.20;99.90;;;;;;4922945;29;20051;-75
2023/10/28 11:55:55;;;;;;;10.70;7.05;;;13.20;99.90;;;;;;4926361;29;20036;-79
2023/10/28 11:58:24;;;;;;;11.57;5.78;;;13.30;99.90;;;;;;4927323;29;20566;-79
2023/10/28 12:00:52;;;;;;;10.55;4.03;;;13.40;99.90;;;;;;4922261;29;20062;-79
2023/10/28 12:03:19;;;;;;;10.50;4.90;;;13.40;99.90;;;;;;4943044;29;20059;-79
2023/10/28 12:05:44;;;;;;;11.90;5.90;;;13.40;99.90;;;;;;4931053;29;20043;-79
2023/10/28 12:08:11;;;;;;;10.85;5.53;;;13.40;99.90;;;;;;4944331;29;20062;-78
2023/10/28 12:10:43;;;;;;;6.68;3.83;;;13.50;99.90;;;;;;4936691;29;20450;-79
2023/10/28 12:13:10;;;;;;;7.35;4.40;;;13.60;99.90;;;;;;4948620;28;20039;-79
2023/10/28 12:15:36;;;;;;;8.02;4.07;;;13.70;99.90;;;;;;4934110;29;20047;-78
2023/10/28 12:18:01;;;;;;;10.25;4.15;;;13.70;99.90;;;;;;4946784;28;20174;-77
2023/10/28 12:20:27;;;;;;;8.63;4.25;;;13.70;99.90;;;;;;4930963;29;20144;-79
2023/10/28 12:22:53;;;;;;;7.10;3.95;;;13.80;99.90;;;;;;4944881;29;20094;-79
2023/10/28 12:25:18;;;;;;;7.35;3.65;;;13.90;99.90;;;;;;4929108;29;20047;-79
2023/10/28 12:27:44;;;;;;;9.80;3.72;;;14.00;99.90;;;;;;4949101;29;20051;-80